Time,TemperatureF,DewpointF,PressureIn,WindDirection,WindDirectionDegrees,WindSpeedMPH,WindSpeedGustMPH,Humidity,HourlyPrecipIn,Conditions,Clouds,dailyrainin,SoftwareType,DateUTC
2013-04-24 00:02:00,8.0,6.0,-100.00,SE,130,7.0,8.0,91,0.00,,,-99.99,,2013-04-24 06:02:00,
2013-04-24 00:12:00,8.0,6.0,-100.00,SE,130,7.0,8.0,91,0.00,,,-99.99,,2013-04-24 06:12:00,
2013-04-24 00:21:00,8.0,6.0,-100.00,SE,132,3.0,5.0,91,0.00,,,-99.99,,2013-04-24 06:21:00,
2013-04-24 00:32:00,7.0,5.0,-100.00,SE,132,3.0,5.0,91,0.00,,,-99.99,,2013-04-24 06:32:00,
2013-04-24 00:42:00,7.0,5.0,-100.00,SE,132,3.0,5.0,91,0.00,,,-99.99,,2013-04-24 06:42:00,
2013-04-24 00:52:00,7.0,5.0,-100.00,ESE,122,4.0,6.0,91,0.00,,,-99.99,,2013-04-24 06:52:00,
2013-04-24 01:02:00,5.0,3.0,-100.00,South,177,3.0,5.0,90,0.00,,,-99.99,,2013-04-24 07:02:00,
2013-04-24 01:11:00,5.0,3.0,-100.00,South,177,3.0,5.0,90,0.00,,,-99.99,,2013-04-24 07:11:00,
2013-04-24 01:22:00,4.0,2.0,-100.00,ESE,120,5.0,6.0,92,0.00,,,-99.99,,2013-04-24 07:22:00,
2013-04-24 01:32:00,4.0,2.0,-100.00,ESE,120,6.0,9.0,92,0.00,,,-99.99,,2013-04-24 07:32:00,
2013-04-24 01:41:00,4.0,2.0,-100.00,ESE,120,6.0,9.0,92,0.00,,,-99.99,,2013-04-24 07:41:00,
2013-04-24 01:52:00,4.0,2.0,-100.00,SE,124,5.0,8.0,89,0.00,,,-99.99,,2013-04-24 07:52:00,
2013-04-24 02:01:00,3.0,1.0,-100.00,SE,127,5.0,6.0,90,0.00,,,-99.99,,2013-04-24 08:01:00,
2013-04-24 02:12:00,3.0,1.0,-100.00,SE,127,5.0,6.0,90,0.00,,,-99.99,,2013-04-24 08:12:00,
2013-04-24 02:21:00,3.0,1.0,-100.00,ESE,120,5.0,8.0,92,0.00,,,-99.99,,2013-04-24 08:21:00,
2013-04-24 02:33:00,3.0,1.0,-100.00,ESE,117,6.0,8.0,92,0.00,,,-99.99,,2013-04-24 08:33:00,
2013-04-24 02:42:00,3.0,1.0,-100.00,ESE,117,6.0,8.0,92,0.00,,,-99.99,,2013-04-24 08:42:00,
2013-04-24 02:52:00,4.0,2.0,-100.00,ESE,118,5.0,6.0,93,0.00,,,-99.99,,2013-04-24 08:52:00,
2013-04-24 03:01:00,3.0,1.0,-100.00,ESE,113,5.0,7.0,91,0.00,,,-99.99,,2013-04-24 09:01:00,
2013-04-24 03:11:00,3.0,1.0,-100.00,ESE,113,5.0,7.0,91,0.00,,,-99.99,,2013-04-24 09:11:00,
2013-04-24 03:21:00,1.0,-1.0,-100.00,ESE,121,8.0,10.0,92,0.00,,,-99.99,,2013-04-24 09:21:00,
2013-04-24 03:33:00,3.0,2.0,-100.00,ESE,120,7.0,9.0,94,0.00,,,-99.99,,2013-04-24 09:33:00,
2013-04-24 03:42:00,3.0,2.0,-100.00,ESE,120,7.0,9.0,94,0.00,,,-99.99,,2013-04-24 09:42:00,
2013-04-24 03:53:00,2.0,0.0,-100.00,SE,125,7.0,9.0,92,0.00,,,-99.99,,2013-04-24 09:53:00,
2013-04-24 04:02:00,3.0,2.0,-100.00,SE,124,6.0,7.0,94,0.00,,,-99.99,,2013-04-24 10:02:00,
2013-04-24 04:12:00,3.0,2.0,-100.00,SE,124,6.0,7.0,94,0.00,,,-99.99,,2013-04-24 10:12:00,
2013-04-24 04:22:00,4.0,2.0,-100.00,South,169,3.0,4.0,92,0.00,,,-99.99,,2013-04-24 10:22:00,
2013-04-24 04:32:00,2.0,0.0,-100.00,SE,125,5.0,7.0,91,0.00,,,-99.99,,2013-04-24 10:32:00,
2013-04-24 04:42:00,2.0,0.0,-100.00,SE,125,5.0,7.0,91,0.00,,,-99.99,,2013-04-24 10:42:00,
2013-04-24 04:53:00,2.0,0.0,-100.00,ESE,120,6.0,8.0,91,0.00,,,-99.99,,2013-04-24 10:53:00,
2013-04-24 05:02:00,3.0,1.0,-100.00,SE,125,6.0,8.0,93,0.00,,,-99.99,,2013-04-24 11:02:00,
2013-04-24 05:11:00,4.0,2.0,-100.00,SE,131,6.0,8.0,91,0.00,,,-99.99,,2013-04-24 11:11:00,
2013-04-24 05:21:00,4.0,2.0,-100.00,SE,131,6.0,8.0,91,0.00,,,-99.99,,2013-04-24 11:21:00,
2013-04-24 05:32:00,4.0,1.0,-100.00,ESE,115,6.0,8.0,88,0.00,,,-99.99,,2013-04-24 11:32:00,
2013-04-24 05:42:00,4.0,1.0,-100.00,ESE,115,6.0,8.0,88,0.00,,,-99.99,,2013-04-24 11:42:00,
2013-04-24 05:52:00,4.0,2.0,-100.00,ESE,121,5.0,7.0,90,0.00,,,-99.99,,2013-04-24 11:52:00,
2013-04-24 06:02:00,5.0,3.0,-100.00,SE,124,5.0,7.0,90,0.00,,,-99.99,,2013-04-24 12:02:00,
2013-04-24 06:11:00,6.0,4.0,-100.00,SSE,149,3.0,5.0,90,0.00,,,-99.99,,2013-04-24 12:11:00,
2013-04-24 06:22:00,6.0,4.0,-100.00,SSE,149,3.0,5.0,90,0.00,,,-99.99,,2013-04-24 12:22:00,
2013-04-24 06:32:00,6.0,3.0,-100.00,ESE,123,5.0,6.0,87,0.00,,,-99.99,,2013-04-24 12:32:00,
2013-04-24 06:42:00,6.0,3.0,-100.00,ESE,123,5.0,6.0,87,0.00,,,-99.99,,2013-04-24 12:42:00,
2013-04-24 06:52:00,6.0,3.0,-100.00,ESE,122,5.0,7.0,88,0.00,,,-99.99,,2013-04-24 12:52:00,
2013-04-24 07:01:00,7.0,5.0,-100.00,ESE,117,6.0,7.0,90,0.00,,,-99.99,,2013-04-24 13:01:00,
2013-04-24 07:12:00,7.0,5.0,-100.00,ESE,117,6.0,7.0,90,0.00,,,-99.99,,2013-04-24 13:12:00,
2013-04-24 07:22:00,9.0,6.0,-100.00,SE,124,5.0,8.0,89,0.00,,,-99.99,,2013-04-24 13:22:00,
2013-04-24 07:31:00,9.0,6.0,-100.00,ESE,119,5.0,7.0,88,0.00,,,-99.99,,2013-04-24 13:31:00,
2013-04-24 07:41:00,9.0,6.0,-100.00,ESE,119,5.0,7.0,88,0.00,,,-99.99,,2013-04-24 13:41:00,
2013-04-24 07:52:00,10.0,8.0,-100.00,SE,128,2.0,4.0,90,0.00,,,-99.99,,2013-04-24 13:52:00,
2013-04-24 08:01:00,13.0,10.0,-100.00,SSE,151,3.0,4.0,87,0.00,,,-99.99,,2013-04-24 14:01:00,
2013-04-24 08:11:00,14.0,10.0,-100.00,SE,131,4.0,5.0,82,0.00,,,-99.99,,2013-04-24 14:11:00,
2013-04-24 08:21:00,14.0,10.0,-100.00,SE,131,4.0,5.0,82,0.00,,,-99.99,,2013-04-24 14:21:00,
2013-04-24 08:32:00,15.0,9.0,-100.00,SE,134,5.0,7.0,78,0.00,,,-99.99,,2013-04-24 14:32:00,
2013-04-24 08:41:00,15.0,9.0,-100.00,SE,134,5.0,7.0,78,0.00,,,-99.99,,2013-04-24 14:41:00,
2013-04-24 08:52:00,17.0,11.0,-100.00,SE,132,4.0,7.0,78,0.00,,,-99.99,,2013-04-24 14:52:00,
2013-04-24 09:01:00,18.0,11.0,-100.00,SE,139,4.0,6.0,75,0.00,,,-99.99,,2013-04-24 15:01:00,
2013-04-24 09:11:00,18.0,11.0,-100.00,SE,139,4.0,6.0,75,0.00,,,-99.99,,2013-04-24 15:11:00,
2013-04-24 09:21:00,21.0,15.0,-100.00,SE,137,3.0,5.0,77,0.00,,,-99.99,,2013-04-24 15:21:00,
2013-04-24 09:33:00,22.0,13.0,-100.00,SSE,154,4.0,7.0,69,0.00,,,-99.99,,2013-04-24 15:33:00,
2013-04-24 09:42:00,22.0,13.0,-100.00,SSE,154,4.0,7.0,69,0.00,,,-99.99,,2013-04-24 15:42:00,
2013-04-24 09:53:00,27.0,19.0,-100.00,SE,131,2.0,3.0,72,0.00,,,-99.99,,2013-04-24 15:53:00,
2013-04-24 10:03:00,30.0,22.0,-100.00,SSE,163,2.0,3.0,72,0.00,,,-99.99,,2013-04-24 16:03:00,
2013-04-24 10:12:00,30.0,22.0,-100.00,SSE,163,2.0,3.0,72,0.00,,,-99.99,,2013-04-24 16:12:00,
2013-04-24 10:23:00,37.0,26.0,-100.00,SE,139,1.0,3.0,63,0.00,,,-99.99,,2013-04-24 16:23:00,
2013-04-24 10:32:00,40.0,28.0,-100.00,South,178,0.0,2.0,61,0.00,,,-99.99,,2013-04-24 16:32:00,
2013-04-24 10:42:00,44.0,30.0,-100.00,NE,36,3.0,5.0,58,0.00,,,-99.99,,2013-04-24 16:42:00,
2013-04-24 10:52:00,44.0,30.0,-100.00,NE,36,3.0,5.0,58,0.00,,,-99.99,,2013-04-24 16:52:00,
2013-04-24 11:02:00,43.0,29.0,-100.00,NNE,29,2.0,6.0,57,0.00,,,-99.99,,2013-04-24 17:02:00,
2013-04-24 11:12:00,43.0,29.0,-100.00,NNE,29,2.0,6.0,57,0.00,,,-99.99,,2013-04-24 17:12:00,
2013-04-24 11:22:00,42.0,25.0,-100.00,North,0,5.0,8.0,51,0.00,,,-99.99,,2013-04-24 17:22:00,
2013-04-24 11:32:00,39.0,25.0,-100.00,NNW,330,9.0,15.0,57,0.00,,,-99.99,,2013-04-24 17:32:00,
2013-04-24 11:42:00,39.0,25.0,-100.00,NNW,330,9.0,15.0,57,0.00,,,-99.99,,2013-04-24 17:42:00,
2013-04-24 11:52:00,37.0,21.0,-100.00,NNW,330,10.0,17.0,52,0.00,,,-99.99,,2013-04-24 17:52:00,
2013-04-24 12:02:00,37.0,22.0,-100.00,NW,308,8.0,13.0,54,0.00,,,-99.99,,2013-04-24 18:02:00,
2013-04-24 12:12:00,37.0,22.0,-100.00,NW,308,8.0,13.0,54,0.00,,,-99.99,,2013-04-24 18:12:00,
2013-04-24 12:21:00,38.0,23.0,-100.00,NW,313,9.0,14.0,55,0.00,,,-99.99,,2013-04-24 18:21:00,
2013-04-24 12:33:00,37.0,20.0,-100.00,NW,313,9.0,15.0,50,0.00,,,-99.99,,2013-04-24 18:33:00,
2013-04-24 12:42:00,37.0,20.0,-100.00,NW,313,9.0,15.0,50,0.00,,,-99.99,,2013-04-24 18:42:00,
2013-04-24 12:52:00,37.0,20.0,-100.00,NW,317,8.0,13.0,49,0.00,,,-99.99,,2013-04-24 18:52:00,
2013-04-24 13:02:00,37.0,22.0,-100.00,NW,304,8.0,15.0,54,0.00,,,-99.99,,2013-04-24 19:02:00,
2013-04-24 13:11:00,38.0,25.0,-100.00,NNW,327,6.0,9.0,58,0.00,,,-99.99,,2013-04-24 19:11:00,
2013-04-24 13:21:00,38.0,25.0,-100.00,NNW,327,6.0,9.0,58,0.00,,,-99.99,,2013-04-24 19:21:00,
2013-04-24 13:31:00,39.0,21.0,-100.00,NW,314,9.0,15.0,48,0.00,,,-99.99,,2013-04-24 19:31:00,
2013-04-24 13:42:00,39.0,21.0,-100.00,NW,314,9.0,15.0,48,0.00,,,-99.99,,2013-04-24 19:42:00,
2013-04-24 13:52:00,38.0,24.0,-100.00,NW,317,9.0,14.0,57,0.00,,,-99.99,,2013-04-24 19:52:00,
2013-04-24 14:02:00,37.0,21.0,-100.00,NNW,328,10.0,15.0,51,0.00,,,-99.99,,2013-04-24 20:02:00,
2013-04-24 14:11:00,37.0,21.0,-100.00,NNW,328,10.0,15.0,51,0.00,,,-99.99,,2013-04-24 20:11:00,
2013-04-24 14:22:00,37.0,19.0,-100.00,NNW,338,10.0,15.0,47,0.00,,,-99.99,,2013-04-24 20:22:00,
2013-04-24 14:32:00,39.0,27.0,-100.00,NNW,335,8.0,14.0,62,0.00,,,-99.99,,2013-04-24 20:32:00,
2013-04-24 14:42:00,39.0,27.0,-100.00,NNW,335,8.0,14.0,62,0.00,,,-99.99,,2013-04-24 20:42:00,
2013-04-24 14:51:00,39.0,24.0,-100.00,NW,310,7.0,12.0,54,0.00,,,-99.99,,2013-04-24 20:51:00,
2013-04-24 15:02:00,39.0,22.0,-100.00,NW,326,6.0,10.0,51,0.00,,,-99.99,,2013-04-24 21:02:00,
2013-04-24 15:11:00,39.0,22.0,-100.00,NW,326,6.0,10.0,51,0.00,,,-99.99,,2013-04-24 21:11:00,
2013-04-24 15:21:00,37.0,25.0,-100.00,NNW,328,8.0,13.0,61,0.00,,,-99.99,,2013-04-24 21:21:00,
2013-04-24 15:33:00,42.0,27.0,-100.00,NW,317,8.0,12.0,54,0.00,,,-99.99,,2013-04-24 21:33:00,
2013-04-24 15:42:00,42.0,27.0,-100.00,NW,317,8.0,12.0,54,0.00,,,-99.99,,2013-04-24 21:42:00,
2013-04-24 15:52:00,41.0,24.0,-100.00,NW,312,9.0,14.0,51,0.00,,,-99.99,,2013-04-24 21:52:00,
2013-04-24 16:03:00,38.0,23.0,-100.00,NW,324,8.0,17.0,55,0.00,,,-99.99,,2013-04-24 22:03:00,
2013-04-24 16:12:00,38.0,23.0,-100.00,NW,324,8.0,17.0,55,0.00,,,-99.99,,2013-04-24 22:12:00,
2013-04-24 16:22:00,38.0,23.0,-100.00,NW,324,8.0,17.0,55,0.00,,,-99.99,,2013-04-24 22:22:00,
2013-04-24 16:33:00,40.0,28.0,-100.00,NNW,340,8.0,13.0,63,0.00,,,-99.99,,2013-04-24 22:33:00,
2013-04-24 16:42:00,40.0,28.0,-100.00,NNW,340,8.0,13.0,63,0.00,,,-99.99,,2013-04-24 22:42:00,
2013-04-24 16:52:00,41.0,23.0,-100.00,NW,326,10.0,15.0,48,0.00,,,-99.99,,2013-04-24 22:52:00,
2013-04-24 17:02:00,40.0,28.0,-100.00,NW,310,7.0,13.0,61,0.00,,,-99.99,,2013-04-24 23:02:00,
2013-04-24 17:12:00,40.0,28.0,-100.00,NW,310,7.0,13.0,61,0.00,,,-99.99,,2013-04-24 23:12:00,
2013-04-24 17:21:00,37.0,17.0,-100.00,NW,326,8.0,13.0,43,0.00,,,-99.99,,2013-04-24 23:21:00,
2013-04-24 17:32:00,38.0,21.0,-100.00,NW,322,7.0,11.0,50,0.00,,,-99.99,,2013-04-24 23:32:00,
2013-04-24 17:42:00,38.0,21.0,-100.00,NW,322,7.0,11.0,50,0.00,,,-99.99,,2013-04-24 23:42:00,
2013-04-24 17:52:00,40.0,27.0,-100.00,NW,318,11.0,15.0,59,0.00,,,-99.99,,2013-04-24 23:52:00,
2013-04-24 18:01:00,40.0,29.0,-100.00,NW,319,8.0,12.0,65,0.00,,,-99.99,,2013-04-25 00:01:00,
2013-04-24 18:12:00,40.0,29.0,-100.00,NW,319,8.0,12.0,65,0.00,,,-99.99,,2013-04-25 00:12:00,
2013-04-24 18:22:00,42.0,25.0,-100.00,WNW,303,8.0,12.0,51,0.00,,,-99.99,,2013-04-25 00:22:00,
2013-04-24 18:32:00,41.0,22.0,-100.00,NW,315,7.0,11.0,46,0.00,,,-99.99,,2013-04-25 00:32:00,
2013-04-24 18:41:00,41.0,22.0,-100.00,NW,315,7.0,11.0,46,0.00,,,-99.99,,2013-04-25 00:41:00,
2013-04-24 18:52:00,39.0,24.0,-100.00,NW,316,7.0,10.0,55,0.00,,,-99.99,,2013-04-25 00:52:00,
2013-04-24 19:01:00,37.0,22.0,-100.00,NW,304,6.0,9.0,55,0.00,,,-99.99,,2013-04-25 01:01:00,
2013-04-24 19:11:00,37.0,22.0,-100.00,NW,304,6.0,9.0,55,0.00,,,-99.99,,2013-04-25 01:11:00,
2013-04-24 19:22:00,37.0,19.0,-100.00,WNW,296,7.0,10.0,48,0.00,,,-99.99,,2013-04-25 01:22:00,
2013-04-24 19:32:00,33.0,16.0,-100.00,NW,318,4.0,6.0,50,0.00,,,-99.99,,2013-04-25 01:32:00,
2013-04-24 19:42:00,33.0,16.0,-100.00,NW,318,4.0,6.0,50,0.00,,,-99.99,,2013-04-25 01:42:00,
2013-04-24 19:52:00,30.0,17.0,-100.00,NW,319,0.0,2.0,57,0.00,,,-99.99,,2013-04-25 01:52:00,
2013-04-24 20:02:00,29.0,14.0,-100.00,WNW,302,0.0,1.0,52,0.00,,,-99.99,,2013-04-25 02:02:00,
2013-04-24 20:11:00,29.0,14.0,-100.00,WNW,302,0.0,1.0,52,0.00,,,-99.99,,2013-04-25 02:11:00,
2013-04-24 20:22:00,26.0,15.0,-100.00,NNW,337,1.0,2.0,63,0.00,,,-99.99,,2013-04-25 02:22:00,
2013-04-24 20:32:00,26.0,17.0,-100.00,NNW,337,3.0,4.0,68,0.00,,,-99.99,,2013-04-25 02:32:00,
2013-04-24 20:42:00,26.0,17.0,-100.00,NNW,337,3.0,4.0,68,0.00,,,-99.99,,2013-04-25 02:42:00,
2013-04-24 20:51:00,26.0,17.0,-100.00,NNW,337,3.0,4.0,68,0.00,,,-99.99,,2013-04-25 02:51:00,
2013-04-24 21:02:00,25.0,16.0,-100.00,ESE,123,3.0,4.0,69,0.00,,,-99.99,,2013-04-25 03:02:00,
2013-04-24 21:11:00,24.0,13.0,-100.00,ESE,105,2.0,5.0,62,0.00,,,-99.99,,2013-04-25 03:11:00,
2013-04-24 21:22:00,24.0,13.0,-100.00,ESE,105,2.0,5.0,62,0.00,,,-99.99,,2013-04-25 03:22:00,
2013-04-24 21:33:00,24.0,14.0,-100.00,SE,127,3.0,5.0,65,0.00,,,-99.99,,2013-04-25 03:33:00,
2013-04-24 21:42:00,24.0,14.0,-100.00,SE,127,3.0,5.0,65,0.00,,,-99.99,,2013-04-25 03:42:00,
2013-04-24 21:52:00,24.0,18.0,-100.00,ESE,116,4.0,6.0,78,0.00,,,-99.99,,2013-04-25 03:52:00,
2013-04-24 22:03:00,23.0,16.0,-100.00,ESE,123,4.0,5.0,74,0.00,,,-99.99,,2013-04-25 04:03:00,
2013-04-24 22:12:00,23.0,15.0,-100.00,ESE,117,5.0,6.0,70,0.00,,,-99.99,,2013-04-25 04:12:00,
2013-04-24 22:22:00,23.0,15.0,-100.00,ESE,117,5.0,6.0,70,0.00,,,-99.99,,2013-04-25 04:22:00,
2013-04-24 22:32:00,21.0,15.0,-100.00,SSE,151,2.0,4.0,76,0.00,,,-99.99,,2013-04-25 04:32:00,
2013-04-24 22:43:00,21.0,15.0,-100.00,SSE,151,2.0,4.0,76,0.00,,,-99.99,,2013-04-25 04:43:00,
2013-04-24 22:52:00,20.0,13.0,-100.00,ESE,122,3.0,6.0,73,0.00,,,-99.99,,2013-04-25 04:52:00,
2013-04-24 23:02:00,20.0,14.0,-100.00,SE,135,4.0,7.0,76,0.00,,,-99.99,,2013-04-25 05:02:00,
2013-04-24 23:12:00,20.0,14.0,-100.00,SE,135,4.0,7.0,76,0.00,,,-99.99,,2013-04-25 05:12:00,
2013-04-24 23:21:00,20.0,12.0,-100.00,SE,127,5.0,7.0,72,0.00,,,-99.99,,2013-04-25 05:21:00,
2013-04-24 23:32:00,19.0,14.0,-100.00,SE,126,5.0,7.0,79,0.00,,,-99.99,,2013-04-25 05:32:00,
2013-04-24 23:42:00,19.0,14.0,-100.00,SE,126,5.0,7.0,79,0.00,,,-99.99,,2013-04-25 05:42:00,
2013-04-24 23:52:00,19.0,13.0,-100.00,SE,129,4.0,7.0,78,0.00,,,-99.99,,2013-04-25 05:52:00,